Time;durP1;ratioP1;P1;durP2;ratioP2;P2;SDS_P1;SDS_P2;PMS_P1;PMS_P2;Temp;Humidity;BMP_temperature;BMP_pressure;BME280_temperature;BME280_humidity;BME280_pressure;Samples;Min_cycle;Max_cycle;Signal;HPM_P1;HPM_P2
2022/04/18 00:01:57;;;;;;;15.32;11.80;;;;;;;4.20;57.39;100301.00;6093891;23;20017;-80
2022/04/18 00:04:23;;;;;;;16.23;11.95;;;;;;;4.24;57.13;100304.56;6095317;23;20445;-80
2022/04/18 00:06:49;;;;;;;13.95;10.73;;;;;;;4.20;57.05;100298.28;6094087;23;20248;-80
2022/04/18 00:09:14;;;;;;;14.85;11.90;;;;;;;4.20;57.23;100298.28;6094915;23;20010;-80
2022/04/18 00:11:40;;;;;;;18.65;13.75;;;;;;;4.18;57.43;100306.09;6068578;23;20353;-80
2022/04/18 00:14:06;;;;;;;14.40;11.25;;;;;;;4.05;57.67;100288.38;6094693;23;20010;-80
2022/04/18 00:16:31;;;;;;;15.05;12.48;;;;;;;4.07;58.09;100294.28;6094561;23;20018;-80
2022/04/18 00:18:57;;;;;;;14.23;11.10;;;;;;;4.02;58.45;100302.91;6093969;23;20369;-80
2022/04/18 00:21:23;;;;;;;13.40;11.43;;;;;;;3.93;58.32;100286.00;6069213;23;20014;-80
2022/04/18 00:23:49;;;;;;;13.68;11.68;;;;;;;3.76;59.18;100263.59;6094238;23;20006;-80
2022/04/18 00:26:14;;;;;;;14.00;11.32;;;;;;;3.85;58.96;100284.41;6093374;23;20018;-81
2022/04/18 00:28:40;;;;;;;13.02;10.77;;;;;;;3.79;58.94;100272.22;6094068;23;20014;-80
2022/04/18 00:31:05;;;;;;;14.40;10.82;;;;;;;3.81;59.02;100278.88;6069338;23;20018;-80
2022/04/18 00:33:31;;;;;;;13.70;10.73;;;;;;;3.79;59.46;100272.22;6093552;23;20014;-80
2022/04/18 00:35:57;;;;;;;12.63;10.82;;;;;;;3.70;59.19;100270.63;6069463;23;20013;-80
2022/04/18 00:38:23;;;;;;;15.00;10.90;;;;;;;3.65;59.71;100270.97;6068237;23;20338;-79
2022/04/18 00:40:49;;;;;;;15.15;11.52;;;;;;;3.70;59.42;100280.81;6069273;23;20010;-79
2022/04/18 00:43:14;;;;;;;13.95;10.48;;;;;;;3.60;59.41;100265.84;6044479;23;20610;-80
2022/04/18 00:45:40;;;;;;;14.95;12.30;;;;;;;3.61;59.64;100281.16;6069293;23;20042;-80
2022/04/18 00:48:06;;;;;;;17.88;13.40;;;;;;;3.61;60.11;100283.09;6068512;23;20018;-80
2022/04/18 00:50:34;;;;;;;16.00;12.20;;;;;;;3.59;59.69;100275.28;6093453;23;20011;-80
2022/04/18 00:53:00;;;;;;;18.15;14.38;;;;;;;3.58;60.04;100279.19;6094053;23;20044;-80
2022/04/18 00:55:26;;;;;;;16.05;12.48;;;;;;;3.52;59.80;100264.25;6068811;23;20021;-80
2022/04/18 00:57:53;;;;;;;13.93;11.98;;;;;;;3.58;59.71;100279.19;6044403;23;20006;-80
2022/04/18 01:00:19;;;;;;;16.95;12.68;;;;;;;3.55;60.29;100279.97;6044658;23;20041;-80
2022/04/18 01:02:45;;;;;;;17.23;13.68;;;;;;;3.55;60.41;100268.19;6067980;23;20018;-80
2022/04/18 01:05:11;;;;;;;16.42;12.80;;;;;;;3.52;60.53;100271.72;6044523;23;20105;-80
2022/04/18 01:07:37;;;;;;;18.67;13.25;;;;;;;3.44;60.68;100268.13;6067906;23;20394;-80
2022/04/18 01:10:04;;;;;;;16.40;13.68;;;;;;;3.43;60.63;100277.53;6068496;23;20037;-80
2022/04/18 01:12:29;;;;;;;17.90;13.48;;;;;;;3.38;60.73;100264.19;6093777;23;20010;-80
2022/04/18 01:15:06;;;;;;;16.88;13.10;;;;;;;3.29;61.23;100255.50;6071296;23;20011;-79
2022/04/18 01:18:01;;;;;;;15.32;12.65;;;;;;;3.28;61.44;100259.41;6065166;23;20340;-78
2022/04/18 01:20:52;;;;;;;16.77;13.30;;;;;;;3.27;61.50;100255.13;6090085;23;20022;-78
2022/04/18 01:23:47;;;;;;;15.55;12.73;;;;;;;3.20;61.24;100250.34;6069051;23;20066;-79
2022/04/18 01:29:09;;;;;;;15.55;12.55;;;;;;;3.18;61.91;100249.97;6068469;23;20094;-79
2022/04/18 01:31:40;;;;;;;14.20;11.52;;;;;;;3.17;61.65;100244.84;6045279;23;20015;-78
2022/04/18 01:34:07;;;;;;;14.80;11.27;;;;;;;3.19;61.29;100234.31;6068022;23;20453;-79
2022/04/18 01:36:33;;;;;;;16.70;13.48;;;;;;;3.18;61.72;100244.47;6068043;23;20385;-79
2022/04/18 01:39:03;;;;;;;12.95;10.60;;;;;;;3.10;61.76;100222.88;6068181;23;20468;-79
2022/04/18 01:41:29;;;;;;;14.18;11.50;;;;;;;3.15;62.11;100238.97;6068016;23;20022;-81
2022/04/18 01:43:56;;;;;;;17.42;12.60;;;;;;;3.12;61.97;100246.00;6067715;23;20018;-80
2022/04/18 01:46:22;;;;;;;18.10;12.23;;;;;;;3.09;62.14;100237.75;6068530;23;20064;-80
2022/04/18 01:48:50;;;;;;;16.60;11.27;;;;;;;3.09;62.16;100229.53;6065934;23;20075;-86
2022/04/18 01:51:16;;;;;;;14.55;11.60;;;;;;;3.07;62.14;100229.16;6044581;23;20011;-86
2022/04/18 01:53:41;;;;;;;15.90;12.50;;;;;;;3.08;61.69;100225.22;6093334;23;20003;-86
2022/04/18 01:56:08;;;;;;;14.32;11.32;;;;;;;3.09;62.03;100227.59;6067658;23;20014;-87
2022/04/18 01:58:36;;;;;;;13.60;11.45;;;;;;;3.09;62.33;100227.59;6068972;23;20014;-86
2022/04/18 02:01:02;;;;;;;12.40;10.38;;;;;;;3.08;62.09;100217.00;6046192;23;20093;-86
2022/04/18 02:03:28;;;;;;;12.43;10.60;;;;;;;3.06;62.25;100225.63;6046057;23;20022;-86
2022/04/18 02:05:55;;;;;;;12.95;10.23;;;;;;;3.00;61.78;100216.16;6069475;23;20052;-86
2022/04/18 02:08:23;;;;;;;12.57;10.27;;;;;;;2.93;62.36;100218.84;6045947;23;20065;-85
2022/04/18 02:10:48;;;;;;;12.55;10.32;;;;;;;2.90;62.58;100216.88;6069319;23;20564;-85
2022/04/18 02:13:20;;;;;;;12.48;10.52;;;;;;;2.89;62.17;100214.53;6047061;23;20009;-85
2022/04/18 02:15:46;;;;;;;13.35;10.98;;;;;;;2.83;62.35;100206.66;6069645;23;20011;-85
2022/04/18 02:18:11;;;;;;;12.38;9.93;;;;;;;2.94;62.26;100216.91;6094736;23;20015;-86
2022/04/18 02:20:37;;;;;;;12.38;10.02;;;;;;;2.90;62.32;100211.41;6069458;23;20018;-85
2022/04/18 02:23:04;;;;;;;12.88;10.55;;;;;;;2.90;62.50;100216.09;6069251;23;20445;-87
2022/04/18 02:25:30;;;;;;;15.43;10.07;;;;;;;2.87;62.51;100219.59;6070426;23;20006;-85
2022/04/18 02:28:01;;;;;;;12.57;10.57;;;;;;;2.86;62.79;100218.03;6069121;23;20018;-85
2022/04/18 02:30:28;;;;;;;12.80;10.48;;;;;;;2.85;62.28;100216.44;6070305;23;20317;-85
2022/04/18 02:32:55;;;;;;;13.88;10.48;;;;;;;2.80;62.93;100206.63;6067515;23;20023;-84
2022/04/18 02:35:25;;;;;;;11.77;10.07;;;;;;;2.81;62.64;100214.47;6020386;23;20361;-85
2022/04/18 02:37:54;;;;;;;12.10;9.93;;;;;;;2.76;62.55;100206.59;6070406;23;20018;-86
2022/04/18 02:40:24;;;;;;;11.10;9.77;;;;;;;2.78;63.86;100208.97;6069445;23;20017;-86
2022/04/18 02:42:51;;;;;;;12.77;10.10;;;;;;;2.78;63.14;100207.03;6070039;23;20089;-85
2022/04/18 02:45:18;;;;;;;11.52;10.07;;;;;;;2.82;63.04;100204.31;6069531;23;20097;-86
2022/04/18 02:48:07;;;;;;;11.98;10.48;;;;;;;2.73;63.10;100199.16;6069829;23;20114;-86
2022/04/18 02:50:36;;;;;;;14.30;10.63;;;;;;;2.71;63.45;100193.25;6069756;23;20098;-86
2022/04/18 02:53:02;;;;;;;11.20;9.80;;;;;;;2.67;63.67;100200.66;6069108;23;20085;-86
2022/04/18 02:55:59;;;;;;;12.75;10.35;;;;;;;2.68;64.02;100196.75;6062189;23;20018;-86
2022/04/18 02:58:25;;;;;;;15.88;10.52;;;;;;;2.61;64.07;100188.50;6068708;23;20504;-86
2022/04/18 03:00:52;;;;;;;13.95;10.80;;;;;;;2.55;64.41;100181.78;6068090;23;20007;-86
2022/04/18 03:03:18;;;;;;;13.23;11.02;;;;;;;2.52;64.52;100185.28;6095150;23;20085;-86
2022/04/18 03:05:44;;;;;;;13.52;10.45;;;;;;;2.49;64.92;100191.53;6045667;23;20014;-86
2022/04/18 03:08:10;;;;;;;12.25;10.25;;;;;;;2.35;65.59;100180.44;6069151;23;20025;-86
2022/04/18 03:13:27;;;;;;;13.88;10.80;;;;;;;2.42;65.78;100179.75;6069016;23;20018;-86
2022/04/18 03:15:54;;;;;;;12.02;10.73;;;;;;;2.38;65.74;100171.50;6068071;23;20010;-86
2022/04/18 03:18:23;;;;;;;13.20;11.15;;;;;;;2.36;65.53;100171.06;6068575;23;20054;-86
2022/04/18 03:20:49;;;;;;;14.43;11.20;;;;;;;2.39;66.08;100170.31;6067924;23;20428;-86
2022/04/18 03:23:15;;;;;;;13.18;10.82;;;;;;;2.34;66.19;100168.72;6068024;23;20121;-80
2022/04/18 03:25:59;;;;;;;;;;;;;;;2.25;66.69;100173.72;6095408;23;20414;-80
2022/04/18 03:28:32;;;;;;;12.50;10.90;;;;;;;2.21;66.43;100172.13;6068783;23;20004;-79
2022/04/18 03:30:57;;;;;;;15.07;10.98;;;;;;;2.14;66.65;100163.84;6068425;23;20022;-80
2022/04/18 03:33:23;;;;;;;13.85;10.80;;;;;;;2.14;67.16;100163.84;6068980;23;20019;-80
2022/04/18 03:41:17;;;;;;;13.50;11.27;;;;;;;2.04;68.15;100162.59;6068150;23;19944;-80
2022/04/18 03:43:43;;;;;;;14.07;10.98;;;;;;;1.94;68.55;100154.28;6069337;23;20388;-86
2022/04/18 03:46:09;;;;;;;14.10;11.63;;;;;;;1.90;68.92;100148.00;6092988;23;20105;-86
2022/04/18 03:48:34;;;;;;;13.45;11.48;;;;;;;1.88;69.21;100160.09;6094997;23;20409;-86
2022/04/18 03:51:00;;;;;;;15.07;12.27;;;;;;;1.78;69.83;100158.00;6067742;23;20081;-85
2022/04/18 03:53:27;;;;;;;16.08;12.30;;;;;;;1.80;70.19;100158.44;6044752;23;20013;-84
2022/04/18 03:55:53;;;;;;;12.70;11.30;;;;;;;1.83;70.09;100156.91;6045073;23;20042;-84
2022/04/18 03:58:39;;;;;;;13.65;11.30;;;;;;;1.78;70.67;100158.00;6093570;23;20024;-84
2022/04/18 04:01:05;;;;;;;13.13;11.60;;;;;;;1.79;70.36;100153.34;6092868;23;20445;-84
2022/04/18 04:03:31;;;;;;;14.70;11.50;;;;;;;1.78;70.28;100152.53;6069403;23;20025;-84
2022/04/18 04:05:57;;;;;;;12.68;11.32;;;;;;;1.70;70.29;100150.13;6068633;23;20102;-84
2022/04/18 04:08:23;;;;;;;13.25;11.65;;;;;;;1.70;70.54;100150.91;6068093;23;20023;-85
2022/04/18 04:10:51;;;;;;;14.00;11.90;;;;;;;1.69;70.50;100154.81;6067920;23;20014;-84
2022/04/18 04:13:18;;;;;;;14.30;11.52;;;;;;;1.68;70.84;100146.97;6069302;23;20006;-84
2022/04/18 04:15:54;;;;;;;15.07;12.05;;;;;;;1.64;70.91;100143.41;6068667;23;20025;-85
2022/04/18 04:18:24;;;;;;;16.42;11.93;;;;;;;1.67;70.80;100146.19;6069250;23;20050;-84
2022/04/18 04:20:51;;;;;;;14.02;11.48;;;;;;;1.59;70.94;100150.00;6068204;23;20025;-85
2022/04/18 04:23:18;;;;;;;14.50;11.90;;;;;;;1.54;71.10;100141.38;6069131;23;20010;-84
2022/04/18 04:26:02;;;;;;;15.18;12.13;;;;;;;1.61;71.40;100147.69;6068743;23;20010;-84
2022/04/18 04:28:43;;;;;;;14.50;11.73;;;;;;;1.66;71.56;100158.28;6067960;23;20014;-84
2022/04/18 04:31:11;;;;;;;15.00;12.63;;;;;;;1.51;72.55;100142.88;6067383;23;20007;-85
2022/04/18 04:33:37;;;;;;;14.98;12.30;;;;;;;1.52;72.54;100158.13;6067868;23;20104;-85
2022/04/18 04:36:05;;;;;;;13.88;11.40;;;;;;;1.53;72.21;100145.25;6067050;23;20073;-85
2022/04/18 04:38:31;;;;;;;13.05;11.65;;;;;;;1.46;73.03;100140.47;6067000;23;20066;-84
2022/04/18 04:41:02;;;;;;;14.52;12.18;;;;;;;1.45;73.23;100149.84;6066548;23;20021;-80
2022/04/18 04:43:42;;;;;;;14.73;12.32;;;;;;;1.34;74.04;100155.19;6068181;23;20403;-79
2022/04/18 04:46:11;;;;;;;14.80;12.15;;;;;;;1.31;74.36;100153.19;6068444;23;20065;-79
2022/04/18 04:48:53;;;;;;;14.27;11.80;;;;;;;1.43;74.01;100160.34;6068685;23;20064;-79
2022/04/18 04:51:19;;;;;;;13.27;11.45;;;;;;;1.49;73.22;100156.16;6068037;23;20018;-79
2022/04/18 04:53:46;;;;;;;12.88;11.25;;;;;;;1.48;73.54;100157.31;6067430;23;20521;-79
2022/04/18 04:56:17;;;;;;;15.60;12.05;;;;;;;1.54;73.41;100144.09;6068394;23;20029;-79
2022/04/18 04:58:43;;;;;;;14.63;12.15;;;;;;;1.60;73.56;100143.38;6066905;23;20014;-84
2022/04/18 05:01:09;;;;;;;14.30;12.65;;;;;;;1.79;73.38;100147.88;6067400;23;20010;-86
2022/04/18 05:03:40;;;;;;;14.43;11.93;;;;;;;1.87;72.36;100144.03;6067434;23;20037;-86
2022/04/18 05:06:08;;;;;;;15.80;12.07;;;;;;;2.03;71.67;100152.00;6041748;23;20018;-86
2022/04/18 05:08:38;;;;;;;13.75;12.00;;;;;;;2.14;71.25;100152.91;6064385;23;20101;-86
2022/04/18 05:11:05;;;;;;;14.98;11.45;;;;;;;2.26;70.85;100144.41;6090409;23;20095;-86
2022/04/18 05:13:40;;;;;;;13.27;11.35;;;;;;;2.43;69.78;100145.72;6065235;23;20452;-86
2022/04/18 05:16:05;;;;;;;14.05;12.23;;;;;;;2.46;69.44;100148.50;6092326;23;20021;-85
2022/04/18 05:18:40;;;;;;;14.07;11.13;;;;;;;2.79;68.80;100148.31;6063995;23;20003;-85
2022/04/18 05:21:07;;;;;;;16.05;11.30;;;;;;;2.97;67.46;100153.13;6063875;23;20640;-86
2022/04/18 05:23:33;;;;;;;14.45;11.70;;;;;;;3.11;67.07;100143.03;6062793;23;20014;-85
2022/04/18 05:25:59;;;;;;;14.40;11.82;;;;;;;3.14;66.76;100152.44;6062188;23;20081;-85
2022/04/18 05:28:25;;;;;;;14.18;11.43;;;;;;;3.08;66.62;100157.47;6038914;23;20101;-85
2022/04/18 05:30:57;;;;;;;13.52;11.45;;;;;;;3.03;66.84;100154.34;6065693;23;20353;-86
2022/04/18 05:33:23;;;;;;;14.25;11.00;;;;;;;3.04;66.53;100158.63;6067467;23;20041;-85
2022/04/18 05:36:07;;;;;;;16.00;11.68;;;;;;;3.00;66.85;100163.31;6087032;23;20029;-85
2022/04/18 05:38:35;;;;;;;13.77;11.13;;;;;;;3.00;66.41;100157.81;6061825;23;20025;-85
2022/04/18 05:41:07;;;;;;;13.75;11.10;;;;;;;2.95;66.54;100156.25;6061301;23;20010;-85
2022/04/18 05:43:35;;;;;;;13.25;11.80;;;;;;;3.05;66.74;100162.94;6061108;23;20449;-85
2022/04/18 05:46:00;;;;;;;12.65;11.20;;;;;;;3.11;66.61;100155.94;6086572;23;20014;-84
2022/04/18 05:48:26;;;;;;;12.88;10.00;;;;;;;3.21;66.03;100161.47;6061051;23;20445;-84
2022/04/18 05:50:54;;;;;;;12.90;10.85;;;;;;;3.28;65.84;100156.03;6061138;23;20018;-84
2022/04/18 05:53:28;;;;;;;12.95;10.50;;;;;;;3.42;65.15;100160.78;6062576;23;20016;-86
2022/04/18 05:56:04;;;;;;;12.30;9.80;;;;;;;3.46;65.22;100156.09;6102376;23;20158;-85
2022/04/18 05:59:05;;;;;;;12.77;9.98;;;;;;;3.62;64.04;100158.50;6031415;23;20054;-86
2022/04/18 06:01:50;;;;;;;12.02;10.30;;;;;;;3.75;64.29;100160.50;6083163;23;20075;-85
2022/04/18 06:04:28;;;;;;;13.75;9.77;;;;;;;3.93;62.59;100157.78;6063343;23;20057;-85
2022/04/18 06:07:17;;;;;;;10.60;8.95;;;;;;;4.02;61.78;100155.47;6068144;23;20030;-85
2022/04/18 06:09:45;;;;;;;11.40;9.30;;;;;;;4.09;61.32;100143.69;6064465;23;20011;-86
2022/04/18 06:12:11;;;;;;;10.82;9.15;;;;;;;4.18;61.10;100171.56;6063018;23;20017;-85
2022/04/18 06:14:39;;;;;;;11.43;8.70;;;;;;;4.24;60.89;100156.28;6064614;23;20021;-86
2022/04/18 06:17:05;;;;;;;12.63;8.82;;;;;;;4.39;60.57;100152.38;6064035;23;20041;-80
2022/04/18 06:19:32;;;;;;;11.38;8.57;;;;;;;4.47;60.09;100156.69;6064919;23;20023;-80
2022/04/18 06:22:03;;;;;;;9.43;7.90;;;;;;;4.61;59.05;100153.16;6065547;23;20030;-79
2022/04/18 06:24:29;;;;;;;9.23;7.82;;;;;;;4.58;58.44;100151.97;6065535;23;20019;-80
2022/04/18 06:27:11;;;;;;;9.27;8.07;;;;;;;4.58;59.36;100165.69;6066205;23;20021;-80
2022/04/18 06:29:37;;;;;;;9.77;8.48;;;;;;;4.73;58.63;100162.94;6062535;23;20019;-80
2022/04/18 06:32:04;;;;;;;10.00;7.68;;;;;;;4.82;58.66;100164.09;6090115;23;20002;-80
2022/04/18 06:34:30;;;;;;;10.10;7.72;;;;;;;5.00;58.42;100161.31;6063458;23;20018;-80
2022/04/18 06:37:04;;;;;;;9.77;8.30;;;;;;;5.09;57.93;100162.50;6062243;23;20093;-79
2022/04/18 06:39:37;;;;;;;8.43;7.57;;;;;;;5.20;57.53;100158.91;6061269;23;20051;-80
2022/04/18 06:42:29;;;;;;;9.27;7.30;;;;;;;5.38;57.56;100157.66;6065167;23;20094;-80
2022/04/18 06:45:00;;;;;;;9.82;7.88;;;;;;;5.52;57.91;100157.63;6019992;23;20101;-80
2022/04/18 06:47:26;;;;;;;9.70;7.57;;;;;;;5.71;55.80;100131.56;6092327;23;20022;-79
2022/04/18 06:50:12;;;;;;;10.13;6.95;;;;;;;5.92;55.14;100150.75;6090016;23;20029;-80
2022/04/18 06:52:56;;;;;;;13.63;10.48;;;;;;;6.05;53.87;100140.84;6092194;23;20085;-79
2022/04/18 06:58:32;;;;;;;11.60;8.52;;;;;;;6.52;53.88;100147.53;6066837;23;20102;-79
2022/04/18 07:01:00;;;;;;;9.75;7.07;;;;;;;6.85;50.77;100143.31;6043801;23;20495;-79
2022/04/18 07:03:26;;;;;;;8.93;6.93;;;;;;;7.06;51.61;100145.06;6067313;23;20349;-79
2022/04/18 07:05:53;;;;;;;8.88;7.00;;;;;;;7.27;51.23;100142.06;6068342;23;20029;-79
2022/04/18 07:08:19;;;;;;;7.75;6.15;;;;;;;7.43;50.77;100130.44;6066422;23;20090;-79
2022/04/18 07:10:44;;;;;;;9.95;6.28;;;;;;;7.62;50.04;100151.09;6066814;23;20017;-79
2022/04/18 07:13:10;;;;;;;7.30;6.00;;;;;;;8.00;48.72;100146.25;6068037;23;20072;-80
2022/04/18 07:15:37;;;;;;;8.52;6.88;;;;;;;8.22;48.41;100150.25;6067943;23;20049;-80
2022/04/18 07:18:05;;;;;;;9.18;7.35;;;;;;;8.53;47.97;100148.22;6065777;23;20337;-80
2022/04/18 07:20:31;;;;;;;9.15;7.22;;;;;;;8.85;46.16;100131.84;6042845;23;20014;-79
2022/04/18 07:22:57;;;;;;;8.95;6.80;;;;;;;8.86;44.95;100134.19;6065139;23;20406;-79
2022/04/18 07:25:29;;;;;;;8.55;6.22;;;;;;;8.73;45.23;100138.00;6065447;23;20842;-79
2022/04/18 07:28:15;;;;;;;7.57;6.15;;;;;;;8.70;46.10;100136.06;6068612;23;20098;-79
2022/04/18 07:30:42;;;;;;;8.10;6.50;;;;;;;9.08;45.54;100139.31;6067964;23;20385;-79
2022/04/18 07:33:08;;;;;;;7.43;6.13;;;;;;;9.31;44.83;100123.44;6092394;23;20081;-79
2022/04/18 07:35:35;;;;;;;8.73;6.40;;;;;;;9.56;44.61;100130.44;6043661;23;20025;-80
2022/04/18 07:40:54;;;;;;;8.40;6.20;;;;;;;10.06;44.11;100124.59;6068451;23;20026;-79
2022/04/18 07:43:22;;;;;;;7.10;6.35;;;;;;;10.20;43.09;100104.88;6067610;23;20074;-80
2022/04/18 07:45:48;;;;;;;5.97;4.90;;;;;;;10.59;41.85;100123.34;6068159;23;20400;-79
2022/04/18 07:48:14;;;;;;;6.55;5.68;;;;;;;10.94;40.84;100116.06;6067347;23;20050;-79
2022/04/18 07:53:28;;;;;;;6.70;5.50;;;;;;;11.04;39.27;100124.09;6065309;23;20014;-85
2022/04/18 07:55:55;;;;;;;7.55;5.63;;;;;;;11.00;39.11;100114.34;6064087;23;20066;-84
2022/04/18 07:58:22;;;;;;;7.72;5.70;;;;;;;11.23;38.82;100112.09;6066659;23;20019;-85
2022/04/18 08:00:48;;;;;;;8.77;5.90;;;;;;;11.50;37.45;100111.69;6066899;23;20042;-85
2022/04/18 08:03:16;;;;;;;6.32;5.05;;;;;;;11.70;36.96;100111.50;6092788;23;20015;-85
2022/04/18 08:05:56;;;;;;;6.65;4.78;;;;;;;11.85;36.43;100104.31;6067250;23;20022;-84
2022/04/18 08:08:26;;;;;;;6.97;5.28;;;;;;;12.12;35.83;100092.75;6067084;23;20098;-86
2022/04/18 08:10:51;;;;;;;5.75;4.40;;;;;;;12.22;35.15;100097.19;6043762;23;20390;-85
2022/04/18 08:13:17;;;;;;;5.70;4.28;;;;;;;12.31;34.55;100093.75;6067212;23;20014;-85
2022/04/18 08:16:02;;;;;;;6.55;4.60;;;;;;;12.42;34.50;100099.72;6094816;23;20025;-85
2022/04/18 08:18:42;;;;;;;5.38;4.22;;;;;;;12.56;33.07;100082.56;6068298;23;20021;-85
2022/04/18 08:21:15;;;;;;;5.68;4.50;;;;;;;12.35;33.29;100097.19;6046141;23;20010;-84
2022/04/18 08:23:43;;;;;;;5.78;4.90;;;;;;;12.45;33.96;100093.28;6068390;23;20070;-86
2022/04/18 08:26:27;;;;;;;5.07;4.25;;;;;;;12.56;33.28;100082.56;6093348;23;20017;-84
2022/04/18 08:28:55;;;;;;;5.97;4.40;;;;;;;12.42;32.03;100088.59;6067444;23;20041;-88
2022/04/18 08:31:22;;;;;;;5.30;4.45;;;;;;;12.43;32.91;100082.59;6068851;23;20421;-85
2022/04/18 08:34:01;;;;;;;5.10;4.35;;;;;;;12.27;32.54;100070.81;6067138;23;20085;-87
2022/04/18 08:36:27;;;;;;;5.18;4.47;;;;;;;12.52;33.05;100079.13;6066693;23;20337;-85
2022/04/18 08:38:55;;;;;;;6.03;4.22;;;;;;;12.66;31.78;100061.94;6092519;23;20747;-86
2022/04/18 08:41:31;;;;;;;5.00;4.25;;;;;;;12.39;32.21;100062.47;6068336;23;20101;-84
2022/04/18 08:43:57;;;;;;;5.55;4.38;;;;;;;12.23;32.04;100068.16;6044762;23;20018;-85
2022/04/18 08:46:22;;;;;;;4.88;4.28;;;;;;;12.49;32.48;100050.22;6068560;23;20015;-85
2022/04/18 08:54:18;;;;;;;4.47;3.45;;;;;;;12.94;30.11;100060.16;6067186;23;20017;-87
2022/04/18 08:56:44;;;;;;;5.50;3.63;;;;;;;12.98;30.42;100042.09;6066862;23;20014;-85
2022/04/18 08:59:10;;;;;;;5.97;3.60;;;;;;;13.09;30.50;100047.28;6067627;23;20093;-85
2022/04/18 09:01:46;;;;;;;5.00;3.50;;;;;;;13.33;28.54;100051.19;6042358;23;20038;-84
2022/04/18 09:04:15;;;;;;;4.20;3.40;;;;;;;13.02;28.17;100058.69;6067070;23;20040;-84
2022/04/18 09:06:46;;;;;;;5.78;3.10;;;;;;;12.62;29.06;100037.00;6041587;23;20010;-85
2022/04/18 09:09:27;;;;;;;6.10;3.47;;;;;;;12.64;29.37;100039.34;6045122;23;20015;-84
2022/04/18 09:11:55;;;;;;;4.82;3.20;;;;;;;12.82;29.40;100028.34;6065917;23;20149;-84
2022/04/18 09:14:26;;;;;;;4.40;3.50;;;;;;;12.67;28.46;100034.88;6092426;23;20021;-85
2022/04/18 09:16:51;;;;;;;5.70;3.50;;;;;;;12.59;29.29;100037.13;6067114;23;20123;-85
2022/04/18 09:19:37;;;;;;;5.35;3.50;;;;;;;12.64;30.24;100031.00;6093321;23;20006;-84
2022/04/18 09:22:05;;;;;;;4.28;3.60;;;;;;;12.95;28.64;100020.72;6066396;23;20109;-85
2022/04/18 09:24:46;;;;;;;5.18;3.67;;;;;;;13.14;29.94;100020.88;6045955;23;20014;-84
2022/04/18 09:27:18;;;;;;;5.03;3.90;;;;;;;13.27;28.90;100013.19;6069608;23;20101;-84
2022/04/18 09:29:47;;;;;;;5.03;4.10;;;;;;;13.24;29.59;100019.69;6043107;23;20369;-84
2022/04/18 09:32:21;;;;;;;5.28;3.80;;;;;;;13.50;28.46;100016.28;6068063;23;20069;-84
2022/04/18 09:35:06;;;;;;;5.50;4.20;;;;;;;13.74;28.55;100019.34;6092005;23;20034;-84
2022/04/18 09:37:37;;;;;;;4.75;3.70;;;;;;;13.91;28.16;100003.88;6066379;23;20022;-84
2022/04/18 09:40:04;;;;;;;5.38;3.90;;;;;;;13.70;28.97;100007.53;6068252;23;20010;-84
2022/04/18 09:42:30;;;;;;;5.15;3.47;;;;;;;13.15;28.59;100005.69;6092649;23;20084;-84
2022/04/18 09:45:16;;;;;;;4.38;3.67;;;;;;;13.01;28.86;99996.66;6091426;23;20026;-84
2022/04/18 09:47:57;;;;;;;5.85;3.50;;;;;;;13.07;29.46;99994.03;6044808;23;20069;-85
2022/04/18 09:53:24;;;;;;;5.20;3.55;;;;;;;13.19;29.40;99990.41;6073073;23;20017;-82
2022/04/18 09:55:51;;;;;;;5.20;3.72;;;;;;;13.17;29.98;99981.75;6067157;23;20018;-83
2022/04/18 09:58:17;;;;;;;5.10;3.90;;;;;;;13.09;29.79;99986.78;6092528;23;20006;-83
2022/04/18 10:00:42;;;;;;;5.15;3.38;;;;;;;13.03;30.88;99985.81;6093687;23;20107;-83
2022/04/18 10:03:09;;;;;;;5.05;3.60;;;;;;;13.21;30.71;99976.81;6093677;23;20010;-83
2022/04/18 10:05:34;;;;;;;5.40;3.80;;;;;;;13.63;29.68;99960.41;6092960;23;20025;-79
2022/04/18 10:08:04;;;;;;;4.72;3.78;;;;;;;13.94;28.79;99961.16;6093430;23;20571;-78
2022/04/18 10:10:34;;;;;;;4.82;3.70;;;;;;;13.97;29.41;99960.22;6093054;23;20041;-78
2022/04/18 10:13:02;;;;;;;5.15;3.85;;;;;;;14.32;28.83;99962.72;6092947;23;20440;-79
2022/04/18 10:15:27;;;;;;;5.95;4.15;;;;;;;14.28;28.63;99945.34;6067097;23;20049;-79
2022/04/18 10:17:53;;;;;;;5.25;4.13;;;;;;;13.71;29.62;99947.75;6092710;23;20014;-79
2022/04/18 10:20:40;;;;;;;5.47;3.58;;;;;;;13.44;29.84;99950.44;6093760;23;20021;-79
2022/04/18 10:23:30;;;;;;;6.13;3.60;;;;;;;13.12;30.28;99945.34;6095513;23;20105;-85
2022/04/18 10:26:33;;;;;;;6.22;4.25;;;;;;;12.88;31.15;99954.16;6096109;23;20018;-80
2022/04/18 10:29:06;;;;;;;4.47;3.85;;;;;;;12.48;32.38;99947.72;6095080;23;20046;-80
2022/04/18 10:31:37;;;;;;;6.65;4.20;;;;;;;12.44;32.52;99949.84;6070168;23;20089;-80
2022/04/18 10:34:02;;;;;;;6.78;4.45;;;;;;;12.40;32.57;99932.50;6095809;23;20015;-81
2022/04/18 10:36:31;;;;;;;6.70;4.35;;;;;;;12.35;32.42;99949.75;6095409;23;20036;-81
2022/04/18 10:38:59;;;;;;;5.75;4.03;;;;;;;12.36;33.74;99954.88;6094592;23;20023;-80
2022/04/18 10:41:36;;;;;;;5.63;4.28;;;;;;;12.22;32.43;99946.25;6070054;23;20010;-79
2022/04/18 10:44:07;;;;;;;6.72;4.40;;;;;;;12.02;33.34;99961.22;6095474;23;20475;-87
2022/04/18 10:46:33;;;;;;;6.05;4.72;;;;;;;11.94;33.90;99950.78;6094590;23;20150;-86
2022/04/18 10:49:04;;;;;;;5.50;4.43;;;;;;;11.98;33.97;99946.66;6093529;23;20034;-86
2022/04/18 10:51:33;;;;;;;6.43;4.72;;;;;;;11.84;34.33;99924.91;6091947;23;20449;-87
2022/04/18 10:54:11;;;;;;;7.05;4.75;;;;;;;11.80;34.75;99942.94;6094505;23;20016;-86
2022/04/18 10:56:57;;;;;;;5.45;4.82;;;;;;;11.84;33.51;99938.03;6093353;23;20015;-86
2022/04/18 10:59:34;;;;;;;5.32;4.35;;;;;;;11.79;34.69;99935.81;6095201;23;20014;-86
2022/04/18 11:02:02;;;;;;;8.60;5.07;;;;;;;11.86;35.13;99936.34;6094361;23;20314;-80
2022/04/18 11:04:41;;;;;;;8.32;4.90;;;;;;;11.98;35.39;99921.63;6069485;23;20455;-79
2022/04/18 11:07:09;;;;;;;6.00;4.75;;;;;;;11.96;34.68;99907.41;6095687;23;20014;-79
2022/04/18 11:09:38;;;;;;;6.30;5.25;;;;;;;12.18;34.69;99926.13;6094489;23;20089;-79
2022/04/18 11:12:06;;;;;;;6.68;5.13;;;;;;;12.56;34.67;99930.31;6095495;23;20042;-79
2022/04/18 11:14:37;;;;;;;7.32;5.05;;;;;;;12.60;33.56;99930.19;6069139;23;20002;-79
2022/04/18 11:17:05;;;;;;;5.57;4.72;;;;;;;12.90;34.10;99935.00;6095581;23;20097;-80
2022/04/18 11:19:43;;;;;;;7.35;5.03;;;;;;;13.01;34.16;99918.69;6095019;23;20010;-79
2022/04/18 11:22:16;;;;;;;6.50;4.57;;;;;;;13.22;33.96;99921.91;6095572;23;20099;-79
2022/04/18 11:24:58;;;;;;;5.93;4.88;;;;;;;13.33;32.73;99916.69;6069412;23;20085;-86
2022/04/18 11:27:30;;;;;;;6.15;4.63;;;;;;;13.11;33.28;99916.72;6095712;23;20390;-86
2022/04/18 11:30:11;;;;;;;6.30;5.05;;;;;;;12.75;33.42;99906.16;6069288;23;20400;-85
2022/04/18 11:32:39;;;;;;;5.93;4.60;;;;;;;12.58;33.78;99913.16;6070015;23;20014;-87
2022/04/18 11:35:08;;;;;;;5.35;4.85;;;;;;;12.61;34.99;99918.59;6094468;23;20322;-86
2022/04/18 11:37:36;;;;;;;6.00;4.68;;;;;;;12.62;34.25;99911.00;6094943;23;20069;-87
2022/04/18 11:40:08;;;;;;;6.82;4.80;;;;;;;12.61;34.41;99909.47;6094591;23;20010;-88
2022/04/18 11:42:34;;;;;;;6.55;4.90;;;;;;;12.77;33.85;99912.06;6095544;23;20018;-86
2022/04/18 11:45:03;;;;;;;8.25;5.07;;;;;;;13.17;34.95;99903.78;6094836;23;20203;-86
2022/04/18 11:47:31;;;;;;;6.05;4.45;;;;;;;13.26;33.98;99901.03;6095295;23;20022;-86
2022/04/18 11:50:04;;;;;;;7.05;4.40;;;;;;;13.42;34.17;99886.84;6094401;23;20006;-86
2022/04/18 11:52:37;;;;;;;6.72;4.55;;;;;;;13.82;33.83;99875.63;6095112;23;20070;-86
2022/04/18 11:55:15;;;;;;;6.32;5.00;;;;;;;13.87;32.14;99883.34;6045397;23;20014;-86
2022/04/18 11:57:45;;;;;;;6.97;5.03;;;;;;;13.57;32.69;99886.25;6095167;23;20033;-87
2022/04/18 12:00:12;;;;;;;6.65;4.60;;;;;;;13.38;33.44;99874.28;6069781;23;20026;-80
2022/04/18 12:08:11;;;;;;;8.23;6.22;;;;;;;13.92;32.50;99863.22;6094235;23;20057;-79
2022/04/18 12:10:41;;;;;;;5.93;4.40;;;;;;;14.28;31.39;99861.66;6068743;23;20433;-80
2022/04/18 12:13:09;;;;;;;5.70;4.45;;;;;;;14.40;31.18;99855.16;6094730;23;20078;-80